sensor_id;sensor_type;location;lat;lon;timestamp;pressure;altitude;pressure_sealevel;temperature;humidity
64876;BME280;51369;49.862;9.908;2023-02-16T00:00:29;99457.09;;;3.18;82.66
64876;BME280;51369;49.862;9.908;2023-02-16T00:02:55;99456.19;;;3.18;82.94
64876;BME280;51369;49.862;9.908;2023-02-16T00:05:30;99448.19;;;3.16;82.86
64876;BME280;51369;49.862;9.908;2023-02-16T00:07:57;99453.53;;;3.16;82.02
64876;BME280;51369;49.862;9.908;2023-02-16T00:10:23;99446.41;;;3.14;82.54
64876;BME280;51369;49.862;9.908;2023-02-16T00:12:49;99454.41;;;3.12;82.53
64876;BME280;51369;49.862;9.908;2023-02-16T00:15:33;99452.63;;;3.11;83.03
64876;BME280;51369;49.862;9.908;2023-02-16T00:18:00;99450.81;;;3.09;82.57
64876;BME280;51369;49.862;9.908;2023-02-16T00:20:28;99452.59;;;3.05;81.82
64876;BME280;51369;49.862;9.908;2023-02-16T00:22:54;99451.69;;;3.02;81.81
64876;BME280;51369;49.862;9.908;2023-02-16T00:25:20;99452.56;;;2.99;81.75
64876;BME280;51369;49.862;9.908;2023-02-16T00:27:45;99445.44;;;2.98;82.37
64876;BME280;51369;49.862;9.908;2023-02-16T00:30:15;99449.88;;;2.98;82.30
64876;BME280;51369;49.862;9.908;2023-02-16T00:32:42;99444.56;;;2.98;83.08
64876;BME280;51369;49.862;9.908;2023-02-16T00:35:17;99447.22;;;2.98;82.98
64876;BME280;51369;49.862;9.908;2023-02-16T00:37:42;99440.09;;;2.97;82.25
64876;BME280;51369;49.862;9.908;2023-02-16T00:40:10;99445.44;;;2.95;82.07
64876;BME280;51369;49.862;9.908;2023-02-16T00:42:36;99443.66;;;2.94;82.77
64876;BME280;51369;49.862;9.908;2023-02-16T00:45:02;99435.66;;;2.94;82.53
64876;BME280;51369;49.862;9.908;2023-02-16T00:47:35;99441.88;;;2.93;82.18
64876;BME280;51369;49.862;9.908;2023-02-16T00:50:03;99440.09;;;2.93;81.65
64876;BME280;51369;49.862;9.908;2023-02-16T00:52:38;99434.75;;;2.93;82.55
64876;BME280;51369;49.862;9.908;2023-02-16T00:55:12;99424.97;;;2.92;83.12
64876;BME280;51369;49.862;9.908;2023-02-16T00:58:05;99423.19;;;2.93;82.99
64876;BME280;51369;49.862;9.908;2023-02-16T01:00:44;99428.53;;;2.93;83.18
64876;BME280;51369;49.862;9.908;2023-02-16T01:03:16;99433.84;;;2.93;82.64
64876;BME280;51369;49.862;9.908;2023-02-16T01:05:43;99429.41;;;2.92;82.10
64876;BME280;51369;49.862;9.908;2023-02-16T01:08:16;99430.28;;;2.91;82.94
64876;BME280;51369;49.862;9.908;2023-02-16T01:11:04;99428.53;;;2.93;82.73
64876;BME280;51369;49.862;9.908;2023-02-16T01:13:44;99426.75;;;2.92;82.85
64876;BME280;51369;49.862;9.908;2023-02-16T01:16:19;99426.75;;;2.93;82.21
64876;BME280;51369;49.862;9.908;2023-02-16T01:18:45;99426.75;;;2.93;83.22
64876;BME280;51369;49.862;9.908;2023-02-16T01:21:11;99430.31;;;2.94;82.57
64876;BME280;51369;49.862;9.908;2023-02-16T01:23:37;99422.31;;;2.94;82.14
64876;BME280;51369;49.862;9.908;2023-02-16T01:26:04;99423.19;;;2.94;82.95
64876;BME280;51369;49.862;9.908;2023-02-16T01:28:34;99411.63;;;2.92;82.52
64876;BME280;51369;49.862;9.908;2023-02-16T01:31:01;99412.50;;;2.91;81.64
64876;BME280;51369;49.862;9.908;2023-02-16T01:33:27;99408.94;;;2.89;81.82
64876;BME280;51369;49.862;9.908;2023-02-16T01:35:54;99402.72;;;2.86;82.19
64876;BME280;51369;49.862;9.908;2023-02-16T01:38:23;99395.59;;;2.85;81.41
64876;BME280;51369;49.862;9.908;2023-02-16T01:41:26;99394.69;;;2.80;81.23
64876;BME280;51369;49.862;9.908;2023-02-16T01:44:02;99392.88;;;2.77;82.05
64876;BME280;51369;49.862;9.908;2023-02-16T01:49:16;99401.75;;;2.72;82.73
64876;BME280;51369;49.862;9.908;2023-02-16T01:57:05;99410.63;;;2.71;82.66
64876;BME280;51369;49.862;9.908;2023-02-16T02:02:35;99410.63;;;2.69;82.86
64876;BME280;51369;49.862;9.908;2023-02-16T02:05:18;99406.19;;;2.70;82.43
64876;BME280;51369;49.862;9.908;2023-02-16T02:08:21;99394.63;;;2.66;81.67
64876;BME280;51369;49.862;9.908;2023-02-16T02:16:24;99393.72;;;2.63;82.38
64876;BME280;51369;49.862;9.908;2023-02-16T02:18:50;99392.81;;;2.62;82.39
64876;BME280;51369;49.862;9.908;2023-02-16T02:27:23;99376.81;;;2.59;81.76
64876;BME280;51369;49.862;9.908;2023-02-16T02:35:14;99370.56;;;2.52;82.02
64876;BME280;51369;49.862;9.908;2023-02-16T02:37:46;99363.44;;;2.53;81.25
64876;BME280;51369;49.862;9.908;2023-02-16T02:45:38;99374.84;;;2.26;82.15
64876;BME280;51369;49.862;9.908;2023-02-16T02:48:05;99371.28;;;2.24;82.83
64876;BME280;51369;49.862;9.908;2023-02-16T02:50:38;99363.25;;;2.22;83.15
64876;BME280;51369;49.862;9.908;2023-02-16T02:53:12;99372.16;;;2.23;83.37
64876;BME280;51369;49.862;9.908;2023-02-16T02:55:43;99354.38;;;2.22;82.40
64876;BME280;51369;49.862;9.908;2023-02-16T02:58:31;99363.25;;;2.21;82.62
64876;BME280;51369;49.862;9.908;2023-02-16T03:01:39;99358.00;;;2.33;82.15
64876;BME280;51369;49.862;9.908;2023-02-16T03:04:07;99374.00;;;2.36;82.30
64876;BME280;51369;49.862;9.908;2023-02-16T03:06:39;99373.09;;;2.34;82.60
64876;BME280;51369;49.862;9.908;2023-02-16T03:09:11;99364.22;;;2.34;81.83
64876;BME280;51369;49.862;9.908;2023-02-16T03:11:38;99356.19;;;2.29;81.27
64876;BME280;51369;49.862;9.908;2023-02-16T03:14:35;99361.53;;;2.27;81.67
64876;BME280;51369;49.862;9.908;2023-02-16T03:17:06;99364.19;;;2.29;82.76
64876;BME280;51369;49.862;9.908;2023-02-16T03:19:51;99361.53;;;2.29;81.51
64876;BME280;51369;49.862;9.908;2023-02-16T03:22:36;99365.06;;;2.28;81.77
64876;BME280;51369;49.862;9.908;2023-02-16T03:25:23;99365.97;;;2.28;81.83
64876;BME280;51369;49.862;9.908;2023-02-16T03:28:09;99368.63;;;2.27;81.26
64876;BME280;51369;49.862;9.908;2023-02-16T03:30:56;99358.84;;;2.26;82.01
64876;BME280;51369;49.862;9.908;2023-02-16T03:33:24;99357.06;;;2.23;81.40
64876;BME280;51369;49.862;9.908;2023-02-16T03:35:50;99353.50;;;2.23;82.01
64876;BME280;51369;49.862;9.908;2023-02-16T03:38:16;99365.94;;;2.22;82.83
64876;BME280;51369;49.862;9.908;2023-02-16T03:40:42;99367.69;;;2.22;82.20
64876;BME280;51369;49.862;9.908;2023-02-16T03:43:09;99373.03;;;2.23;82.36
64876;BME280;51369;49.862;9.908;2023-02-16T03:45:39;99367.69;;;2.22;82.06
64876;BME280;51369;49.862;9.908;2023-02-16T03:48:06;99364.16;;;2.24;82.37
64876;BME280;51369;49.862;9.908;2023-02-16T03:50:32;99358.84;;;2.24;82.77
64876;BME280;51369;49.862;9.908;2023-02-16T03:52:57;99357.94;;;2.24;82.06
64876;BME280;51369;49.862;9.908;2023-02-16T03:55:38;99363.25;;;2.22;81.63
64876;BME280;51369;49.862;9.908;2023-02-16T03:58:05;99362.38;;;2.22;82.65
64876;BME280;51369;49.862;9.908;2023-02-16T04:00:31;99359.72;;;2.22;82.84
64876;BME280;51369;49.862;9.908;2023-02-16T04:02:58;99367.69;;;2.22;82.58
64876;BME280;51369;49.862;9.908;2023-02-16T04:05:24;99377.47;;;2.23;82.97
64876;BME280;51369;49.862;9.908;2023-02-16T04:07:49;99376.59;;;2.24;82.15
64876;BME280;51369;49.862;9.908;2023-02-16T04:10:15;99371.28;;;2.24;82.76
64876;BME280;51369;49.862;9.908;2023-02-16T04:12:40;99381.03;;;2.25;82.15
64876;BME280;51369;49.862;9.908;2023-02-16T04:15:12;99378.38;;;2.22;82.83
64876;BME280;51369;49.862;9.908;2023-02-16T04:17:38;99371.25;;;2.21;82.05
64876;BME280;51369;49.862;9.908;2023-02-16T04:20:07;99375.66;;;2.17;81.83
64876;BME280;51369;49.862;9.908;2023-02-16T04:22:32;99381.88;;;2.15;81.62
64876;BME280;51369;49.862;9.908;2023-02-16T04:24:58;99386.28;;;2.13;82.41
64876;BME280;51369;49.862;9.908;2023-02-16T04:27:23;99374.72;;;2.11;82.55
64876;BME280;51369;49.862;9.908;2023-02-16T04:29:48;99370.28;;;2.11;82.01
64876;BME280;51369;49.862;9.908;2023-02-16T04:32:14;99375.63;;;2.11;82.14
64876;BME280;51369;49.862;9.908;2023-02-16T04:34:39;99373.84;;;2.10;82.01
64876;BME280;51369;49.862;9.908;2023-02-16T04:37:05;99377.41;;;2.11;82.35
64876;BME280;51369;49.862;9.908;2023-02-16T04:39:30;99375.63;;;2.11;82.35
64876;BME280;51369;49.862;9.908;2023-02-16T04:41:56;99372.97;;;2.13;82.21
64876;BME280;51369;49.862;9.908;2023-02-16T04:44:21;99370.31;;;2.13;82.79
64876;BME280;51369;49.862;9.908;2023-02-16T04:46:47;99379.19;;;2.12;82.33
64876;BME280;51369;49.862;9.908;2023-02-16T04:49:12;99375.63;;;2.10;82.45
64876;BME280;51369;49.862;9.908;2023-02-16T04:51:38;99368.50;;;2.07;81.73
64876;BME280;51369;49.862;9.908;2023-02-16T04:54:05;99373.81;;;2.06;82.07
64876;BME280;51369;49.862;9.908;2023-02-16T04:56:30;99382.69;;;2.05;81.86
64876;BME280;51369;49.862;9.908;2023-02-16T04:58:55;99373.78;;;2.01;82.38
64876;BME280;51369;49.862;9.908;2023-02-16T05:01:22;99369.34;;;2.02;82.41
64876;BME280;51369;49.862;9.908;2023-02-16T05:03:49;99377.31;;;2.02;81.67
64876;BME280;51369;49.862;9.908;2023-02-16T05:06:15;99377.31;;;2.02;81.24
64876;BME280;51369;49.862;9.908;2023-02-16T05:08:40;99369.31;;;2.00;81.77
64876;BME280;51369;49.862;9.908;2023-02-16T05:11:06;99375.53;;;2.01;82.26
64876;BME280;51369;49.862;9.908;2023-02-16T05:13:50;99377.31;;;2.02;82.25
64876;BME280;51369;49.862;9.908;2023-02-16T05:16:34;99380.88;;;2.02;82.58
64876;BME280;51369;49.862;9.908;2023-02-16T05:18:59;99394.19;;;2.02;81.90
64876;BME280;51369;49.862;9.908;2023-02-16T05:21:25;99382.66;;;2.00;82.55
64876;BME280;51369;49.862;9.908;2023-02-16T05:24:02;99385.28;;;1.99;81.47
64876;BME280;51369;49.862;9.908;2023-02-16T05:26:28;99379.97;;;1.99;82.32
64876;BME280;51369;49.862;9.908;2023-02-16T05:28:54;99378.19;;;1.98;81.89
64876;BME280;51369;49.862;9.908;2023-02-16T05:31:21;99383.50;;;1.98;82.59
64876;BME280;51369;49.862;9.908;2023-02-16T05:33:46;99374.66;;;1.99;81.96
64876;BME280;51369;49.862;9.908;2023-02-16T05:36:12;99380.84;;;1.98;81.73
64876;BME280;51369;49.862;9.908;2023-02-16T05:38:37;99380.84;;;1.98;82.23
64876;BME280;51369;49.862;9.908;2023-02-16T05:41:02;99379.06;;;1.98;81.67
64876;BME280;51369;49.862;9.908;2023-02-16T05:43:28;99374.66;;;1.99;81.86
64876;BME280;51369;49.862;9.908;2023-02-16T05:45:53;99380.84;;;1.98;81.64
64876;BME280;51369;49.862;9.908;2023-02-16T05:48:19;99376.41;;;1.98;82.53
64876;BME280;51369;49.862;9.908;2023-02-16T05:50:44;99380.84;;;1.98;82.38
64876;BME280;51369;49.862;9.908;2023-02-16T05:53:09;99387.97;;;1.99;81.89
64876;BME280;51369;49.862;9.908;2023-02-16T05:55:35;99386.19;;;1.98;81.94
64876;BME280;51369;49.862;9.908;2023-02-16T05:58:00;99379.97;;;1.97;82.53
64876;BME280;51369;49.862;9.908;2023-02-16T06:00:26;99384.41;;;1.96;82.61
64876;BME280;51369;49.862;9.908;2023-02-16T06:02:51;99381.72;;;1.96;82.36
64876;BME280;51369;49.862;9.908;2023-02-16T06:05:17;99391.50;;;1.96;82.31
64876;BME280;51369;49.862;9.908;2023-02-16T06:07:42;99396.81;;;1.94;82.53
64876;BME280;51369;49.862;9.908;2023-02-16T06:10:08;99400.38;;;1.95;82.83
64876;BME280;51369;49.862;9.908;2023-02-16T06:12:33;99402.13;;;1.94;82.30
64876;BME280;51369;49.862;9.908;2023-02-16T06:15:00;99404.78;;;1.94;82.61
64876;BME280;51369;49.862;9.908;2023-02-16T06:17:25;99399.47;;;1.94;82.17
64876;BME280;51369;49.862;9.908;2023-02-16T06:19:52;99395.94;;;1.95;82.30
64876;BME280;51369;49.862;9.908;2023-02-16T06:22:18;99407.47;;;1.94;82.76
64876;BME280;51369;49.862;9.908;2023-02-16T06:24:43;99405.69;;;1.93;82.52
64876;BME280;51369;49.862;9.908;2023-02-16T06:27:09;99406.56;;;1.92;82.84
64876;BME280;51369;49.862;9.908;2023-02-16T06:29:34;99403.00;;;1.90;82.03
64876;BME280;51369;49.862;9.908;2023-02-16T06:31:59;99399.44;;;1.90;81.41
64876;BME280;51369;49.862;9.908;2023-02-16T06:34:25;99400.31;;;1.89;82.84
64876;BME280;51369;49.862;9.908;2023-02-16T06:36:50;99398.53;;;1.89;81.53
64876;BME280;51369;49.862;9.908;2023-02-16T06:39:16;99387.00;;;1.89;82.14
64876;BME280;51369;49.862;9.908;2023-02-16T06:41:41;99393.22;;;1.89;81.92
64876;BME280;51369;49.862;9.908;2023-02-16T06:44:09;99389.69;;;1.90;81.46
64876;BME280;51369;49.862;9.908;2023-02-16T06:46:36;99390.56;;;1.89;82.54
64876;BME280;51369;49.862;9.908;2023-02-16T06:49:02;99395.00;;;1.90;81.58
64876;BME280;51369;49.862;9.908;2023-02-16T06:51:28;99395.00;;;1.90;82.00
64876;BME280;51369;49.862;9.908;2023-02-16T06:53:54;99407.44;;;1.91;82.87
64876;BME280;51369;49.862;9.908;2023-02-16T06:56:19;99405.66;;;1.90;81.72
64876;BME280;51369;49.862;9.908;2023-02-16T06:58:45;99410.97;;;1.90;82.03
64876;BME280;51369;49.862;9.908;2023-02-16T07:01:11;99403.88;;;1.91;82.57
64876;BME280;51369;49.862;9.908;2023-02-16T07:03:36;99415.41;;;1.91;82.92
64876;BME280;51369;49.862;9.908;2023-02-16T07:06:02;99421.66;;;1.92;82.24
64876;BME280;51369;49.862;9.908;2023-02-16T07:08:27;99423.41;;;1.91;82.80
64876;BME280;51369;49.862;9.908;2023-02-16T07:10:53;99413.63;;;1.90;82.30
64876;BME280;51369;49.862;9.908;2023-02-16T07:13:19;99426.97;;;1.92;82.66
64876;BME280;51369;49.862;9.908;2023-02-16T07:15:45;99433.19;;;1.92;82.38
64876;BME280;51369;49.862;9.908;2023-02-16T07:18:11;99425.19;;;1.92;82.51
64876;BME280;51369;49.862;9.908;2023-02-16T07:20:36;99420.75;;;1.90;81.86
64876;BME280;51369;49.862;9.908;2023-02-16T07:23:02;99423.38;;;1.88;81.95
64876;BME280;51369;49.862;9.908;2023-02-16T07:25:27;99426.06;;;1.88;81.45
64876;BME280;51369;49.862;9.908;2023-02-16T07:27:53;99429.56;;;1.86;82.21
64876;BME280;51369;49.862;9.908;2023-02-16T07:30:21;99424.25;;;1.84;81.52
64876;BME280;51369;49.862;9.908;2023-02-16T07:32:46;99427.78;;;1.85;81.37
64876;BME280;51369;49.862;9.908;2023-02-16T07:35:12;99428.69;;;1.87;81.83
64876;BME280;51369;49.862;9.908;2023-02-16T07:37:38;99430.47;;;1.88;81.68
64876;BME280;51369;49.862;9.908;2023-02-16T07:40:04;99437.59;;;1.90;81.65
64876;BME280;51369;49.862;9.908;2023-02-16T07:42:30;99432.28;;;1.90;82.67
64876;BME280;51369;49.862;9.908;2023-02-16T07:44:56;99437.66;;;1.96;82.66
64876;BME280;51369;49.862;9.908;2023-02-16T07:47:22;99420.81;;;1.98;82.94
64876;BME280;51369;49.862;9.908;2023-02-16T07:49:47;99423.50;;;2.01;82.21
64876;BME280;51369;49.862;9.908;2023-02-16T07:52:13;99421.75;;;2.06;82.26
64876;BME280;51369;49.862;9.908;2023-02-16T07:54:38;99427.97;;;2.08;82.37
64876;BME280;51369;49.862;9.908;2023-02-16T07:57:03;99432.47;;;2.12;82.57
64876;BME280;51369;49.862;9.908;2023-02-16T07:59:29;99436.94;;;2.17;82.47
64876;BME280;51369;49.862;9.908;2023-02-16T08:01:55;99438.75;;;2.20;82.20
64876;BME280;51369;49.862;9.908;2023-02-16T08:04:20;99444.97;;;2.22;82.71
64876;BME280;51369;49.862;9.908;2023-02-16T08:06:45;99444.97;;;2.23;81.79
64876;BME280;51369;49.862;9.908;2023-02-16T08:09:13;99450.34;;;2.26;82.33
64876;BME280;51369;49.862;9.908;2023-02-16T08:11:39;99446.81;;;2.31;82.24
64876;BME280;51369;49.862;9.908;2023-02-16T08:14:05;99442.41;;;2.36;82.25
64876;BME280;51369;49.862;9.908;2023-02-16T08:16:30;99441.53;;;2.37;81.55
64876;BME280;51369;49.862;9.908;2023-02-16T08:18:57;99433.56;;;2.41;83.06
64876;BME280;51369;49.862;9.908;2023-02-16T08:21:24;99441.56;;;2.44;82.12
64876;BME280;51369;49.862;9.908;2023-02-16T08:23:53;99443.38;;;2.48;82.75
64876;BME280;51369;49.862;9.908;2023-02-16T08:26:20;99446.94;;;2.50;81.78
64876;BME280;51369;49.862;9.908;2023-02-16T08:28:47;99450.53;;;2.52;82.49
64876;BME280;51369;49.862;9.908;2023-02-16T08:31:22;99445.19;;;2.51;81.13
64876;BME280;51369;49.862;9.908;2023-02-16T08:33:51;99448.75;;;2.53;81.10
64876;BME280;51369;49.862;9.908;2023-02-16T08:36:27;99443.44;;;2.57;81.84
64876;BME280;51369;49.862;9.908;2023-02-16T08:39:05;99443.47;;;2.62;82.22
64876;BME280;51369;49.862;9.908;2023-02-16T08:41:33;99439.06;;;2.67;81.35
64876;BME280;51369;49.862;9.908;2023-02-16T08:44:00;99431.09;;;2.72;82.27
64876;BME280;51369;49.862;9.908;2023-02-16T08:46:27;99434.66;;;2.77;82.89
64876;BME280;51369;49.862;9.908;2023-02-16T08:48:54;99441.81;;;2.81;82.30
64876;BME280;51369;49.862;9.908;2023-02-16T08:51:22;99435.59;;;2.83;81.97
64876;BME280;51369;49.862;9.908;2023-02-16T08:53:49;99432.94;;;2.88;82.07
64876;BME280;51369;49.862;9.908;2023-02-16T08:56:17;99447.16;;;2.85;81.06
64876;BME280;51369;49.862;9.908;2023-02-16T08:58:44;99443.59;;;2.83;81.50
64876;BME280;51369;49.862;9.908;2023-02-16T09:01:11;99448.94;;;2.88;81.21
64876;BME280;51369;49.862;9.908;2023-02-16T09:03:38;99442.75;;;2.90;81.82
64876;BME280;51369;49.862;9.908;2023-02-16T09:06:07;99453.44;;;2.93;81.31
64876;BME280;51369;49.862;9.908;2023-02-16T09:08:33;99453.44;;;2.97;82.24
64876;BME280;51369;49.862;9.908;2023-02-16T09:11:03;99443.69;;;3.00;81.64
64876;BME280;51369;49.862;9.908;2023-02-16T09:13:28;99442.81;;;3.07;81.74
64876;BME280;51369;49.862;9.908;2023-02-16T09:16:01;99448.19;;;3.13;82.42
64876;BME280;51369;49.862;9.908;2023-02-16T09:18:26;99444.66;;;3.20;82.69
64876;BME280;51369;49.862;9.908;2023-02-16T09:20:51;99443.78;;;3.28;82.28
64876;BME280;51369;49.862;9.908;2023-02-16T09:23:17;99438.47;;;3.34;82.00
64876;BME280;51369;49.862;9.908;2023-02-16T09:25:44;99449.16;;;3.40;81.61
64876;BME280;51369;49.862;9.908;2023-02-16T09:28:10;99458.06;;;3.48;82.27
64876;BME280;51369;49.862;9.908;2023-02-16T09:30:37;99458.06;;;3.52;81.18
64876;BME280;51369;49.862;9.908;2023-02-16T09:33:03;99448.28;;;3.57;81.35
64876;BME280;51369;49.862;9.908;2023-02-16T09:35:29;99451.84;;;3.63;80.97
64876;BME280;51369;49.862;9.908;2023-02-16T09:37:54;99459.00;;;3.70;81.04
64876;BME280;51369;49.862;9.908;2023-02-16T09:40:20;99461.69;;;3.76;80.89
64876;BME280;51369;49.862;9.908;2023-02-16T09:43:06;99463.47;;;3.81;80.47
64876;BME280;51369;49.862;9.908;2023-02-16T09:45:40;99466.16;;;3.89;81.00
64876;BME280;51369;49.862;9.908;2023-02-16T09:48:22;99462.59;;;3.93;80.38
64876;BME280;51369;49.862;9.908;2023-02-16T09:50:49;99451.91;;;3.96;80.86
64876;BME280;51369;49.862;9.908;2023-02-16T09:53:27;99457.25;;;3.96;79.56
64876;BME280;51369;49.862;9.908;2023-02-16T09:56:48;99449.25;;;3.95;79.93
64876;BME280;51369;49.862;9.908;2023-02-16T09:58:50;99456.38;;;3.99;79.93
64876;BME280;51369;49.862;9.908;2023-02-16T10:04:21;99444.78;;;4.01;79.53
64876;BME280;51369;49.862;9.908;2023-02-16T10:09:25;99440.34;;;4.11;79.69
64876;BME280;51369;49.862;9.908;2023-02-16T10:12:21;99447.47;;;4.15;79.99
64876;BME280;51369;49.862;9.908;2023-02-16T10:14:50;99441.22;;;4.20;80.27
64876;BME280;51369;49.862;9.908;2023-02-16T10:19:55;99447.47;;;4.24;79.29
64876;BME280;51369;49.862;9.908;2023-02-16T10:22:33;99447.47;;;4.27;80.31
64876;BME280;51369;49.862;9.908;2023-02-16T10:25:16;99450.13;;;4.32;80.11
64876;BME280;51369;49.862;9.908;2023-02-16T10:27:45;99443.91;;;4.36;79.15
64876;BME280;51369;49.862;9.908;2023-02-16T10:30:20;99440.34;;;4.37;79.20
64876;BME280;51369;49.862;9.908;2023-02-16T10:32:56;99435.88;;;4.39;79.22
64876;BME280;51369;49.862;9.908;2023-02-16T10:35:35;99436.75;;;4.42;79.45
64876;BME280;51369;49.862;9.908;2023-02-16T10:38:11;99441.22;;;4.48;78.96
64876;BME280;51369;49.862;9.908;2023-02-16T10:40:54;99436.75;;;4.53;79.58
64876;BME280;51369;49.862;9.908;2023-02-16T10:44:00;99439.41;;;4.57;79.30
64876;BME280;51369;49.862;9.908;2023-02-16T10:46:33;99439.41;;;4.64;79.62
64876;BME280;51369;49.862;9.908;2023-02-16T10:49:01;99433.16;;;4.68;79.22
64876;BME280;51369;49.862;9.908;2023-02-16T10:51:32;99434.94;;;4.67;78.89
64876;BME280;51369;49.862;9.908;2023-02-16T10:54:00;99434.06;;;4.65;78.23
64876;BME280;51369;49.862;9.908;2023-02-16T10:59:21;99418.00;;;4.62;78.95
64876;BME280;51369;49.862;9.908;2023-02-16T11:01:58;99428.72;;;4.61;78.99
64876;BME280;51369;49.862;9.908;2023-02-16T11:04:37;99426.03;;;4.64;79.20
64876;BME280;51369;49.862;9.908;2023-02-16T11:09:32;99426.00;;;4.77;78.75
64876;BME280;51369;49.862;9.908;2023-02-16T11:11:58;99422.41;;;4.83;78.77
64876;BME280;51369;49.862;9.908;2023-02-16T11:14:26;99423.28;;;4.88;78.46
64876;BME280;51369;49.862;9.908;2023-02-16T11:17:21;99419.72;;;4.89;78.65
64876;BME280;51369;49.862;9.908;2023-02-16T11:20:03;99422.38;;;4.92;78.55
64876;BME280;51369;49.862;9.908;2023-02-16T11:22:38;99403.63;;;4.97;79.21
64876;BME280;51369;49.862;9.908;2023-02-16T11:25:22;99418.78;;;5.01;78.88
64876;BME280;51369;49.862;9.908;2023-02-16T11:27:59;99409.84;;;5.03;78.80
64876;BME280;51369;49.862;9.908;2023-02-16T11:30:38;99400.91;;;5.09;79.13
64876;BME280;51369;49.862;9.908;2023-02-16T11:33:26;99410.69;;;5.17;79.37
64876;BME280;51369;49.862;9.908;2023-02-16T11:35:53;99405.22;;;5.31;78.92
64876;BME280;51369;49.862;9.908;2023-02-16T11:38:26;99391.75;;;5.43;79.17
64876;BME280;51369;49.862;9.908;2023-02-16T11:40:52;99394.41;;;5.51;79.01
64876;BME280;51369;49.862;9.908;2023-02-16T11:43:19;99396.16;;;5.56;78.53
64876;BME280;51369;49.862;9.908;2023-02-16T11:46:06;99384.53;;;5.57;77.78
64876;BME280;51369;49.862;9.908;2023-02-16T11:48:33;99376.44;;;5.65;78.38
64876;BME280;51369;49.862;9.908;2023-02-16T11:51:02;99382.63;;;5.73;78.73
64876;BME280;51369;49.862;9.908;2023-02-16T11:53:31;99383.47;;;5.81;78.49
64876;BME280;51369;49.862;9.908;2023-02-16T11:56:18;99375.38;;;5.87;77.92
64876;BME280;51369;49.862;9.908;2023-02-16T12:01:39;99373.47;;;6.08;77.51
64876;BME280;51369;49.862;9.908;2023-02-16T12:04:29;99368.91;;;6.16;77.92
64876;BME280;51369;49.862;9.908;2023-02-16T12:07:29;99366.97;;;6.33;78.29
64876;BME280;51369;49.862;9.908;2023-02-16T12:12:51;99363.06;;;6.63;77.41
64876;BME280;51369;49.862;9.908;2023-02-16T12:15:29;99363.94;;;6.67;76.69
64876;BME280;51369;49.862;9.908;2023-02-16T12:21:09;99358.56;;;6.65;76.38
64876;BME280;51369;49.862;9.908;2023-02-16T12:23:47;99352.31;;;6.65;76.00
64876;BME280;51369;49.862;9.908;2023-02-16T12:29:03;99344.25;;;6.66;76.25
64876;BME280;51369;49.862;9.908;2023-02-16T12:31:44;99348.66;;;6.73;76.50
64876;BME280;51369;49.862;9.908;2023-02-16T12:34:36;99335.19;;;6.76;76.51
64876;BME280;51369;49.862;9.908;2023-02-16T12:42:54;99330.31;;;7.06;76.31
64876;BME280;51369;49.862;9.908;2023-02-16T12:45:26;99322.09;;;7.16;76.30
64876;BME280;51369;49.862;9.908;2023-02-16T12:48:05;99324.69;;;7.24;75.97
64876;BME280;51369;49.862;9.908;2023-02-16T12:50:34;99314.75;;;7.31;75.38
64876;BME280;51369;49.862;9.908;2023-02-16T12:53:06;99313.81;;;7.32;75.16
64876;BME280;51369;49.862;9.908;2023-02-16T12:55:43;99321.78;;;7.38;74.82
64876;BME280;51369;49.862;9.908;2023-02-16T12:58:36;99312.78;;;7.42;74.65
64876;BME280;51369;49.862;9.908;2023-02-16T13:01:12;99308.28;;;7.42;75.20
64876;BME280;51369;49.862;9.908;2023-02-16T13:03:51;99305.59;;;7.42;74.74
64876;BME280;51369;49.862;9.908;2023-02-16T13:14:21;99293.25;;;7.31;74.13
64876;BME280;51369;49.862;9.908;2023-02-16T13:16:52;99292.41;;;7.27;74.29
64876;BME280;51369;49.862;9.908;2023-02-16T13:19:19;99291.50;;;7.27;74.66
64876;BME280;51369;49.862;9.908;2023-02-16T13:22:07;99287.06;;;7.26;74.78
64876;BME280;51369;49.862;9.908;2023-02-16T13:25:00;99287.78;;;7.37;75.19
64876;BME280;51369;49.862;9.908;2023-02-16T13:27:53;99292.06;;;7.50;74.98
64876;BME280;51369;49.862;9.908;2023-02-16T13:33:33;99293.50;;;7.71;74.60
64876;BME280;51369;49.862;9.908;2023-02-16T13:41:55;99281.56;;;7.89;73.24
64876;BME280;51369;49.862;9.908;2023-02-16T13:44:36;99277.91;;;7.93;73.68
64876;BME280;51369;49.862;9.908;2023-02-16T13:47:05;99278.63;;;8.02;74.06
64876;BME280;51369;49.862;9.908;2023-02-16T13:49:38;99274.91;;;8.09;74.13
64876;BME280;51369;49.862;9.908;2023-02-16T13:52:07;99272.03;;;8.19;73.70
64876;BME280;51369;49.862;9.908;2023-02-16T13:54:36;99269.25;;;8.25;73.82
64876;BME280;51369;49.862;9.908;2023-02-16T13:57:10;99270.06;;;8.28;73.85
64876;BME280;51369;49.862;9.908;2023-02-16T14:02:03;99256.53;;;8.34;73.65
64876;BME280;51369;49.862;9.908;2023-02-16T14:12:16;99257.94;;;8.54;74.13
64876;BME280;51369;49.862;9.908;2023-02-16T14:20:03;99260.53;;;8.58;73.11
64876;BME280;51369;49.862;9.908;2023-02-16T14:27:50;99256.88;;;8.61;73.21
64876;BME280;51369;49.862;9.908;2023-02-16T14:30:22;99258.66;;;8.62;73.16
64876;BME280;51369;49.862;9.908;2023-02-16T14:32:55;99247.00;;;8.61;73.42
64876;BME280;51369;49.862;9.908;2023-02-16T14:35:34;99256.03;;;8.59;72.74
64876;BME280;51369;49.862;9.908;2023-02-16T14:38:13;99251.53;;;8.59;72.80
64876;BME280;51369;49.862;9.908;2023-02-16T14:40:51;99248.00;;;8.57;73.09
64876;BME280;51369;49.862;9.908;2023-02-16T14:43:29;99244.44;;;8.55;72.85
64876;BME280;51369;49.862;9.908;2023-02-16T14:51:57;99229.38;;;8.46;73.35
64876;BME280;51369;49.862;9.908;2023-02-16T14:57:51;99234.84;;;8.42;72.96
64876;BME280;51369;49.862;9.908;2023-02-16T15:03:14;99238.53;;;8.38;73.54
64876;BME280;51369;49.862;9.908;2023-02-16T15:05:39;99231.44;;;8.34;73.23
64876;BME280;51369;49.862;9.908;2023-02-16T15:08:15;99232.41;;;8.28;73.37
64876;BME280;51369;49.862;9.908;2023-02-16T15:10:42;99238.72;;;8.26;72.98
64876;BME280;51369;49.862;9.908;2023-02-16T15:13:18;99229.88;;;8.19;72.80
64876;BME280;51369;49.862;9.908;2023-02-16T15:15:46;99238.97;;;8.13;73.86
64876;BME280;51369;49.862;9.908;2023-02-16T15:18:32;99230.22;;;8.02;73.73
64876;BME280;51369;49.862;9.908;2023-02-16T15:20:58;99229.44;;;7.96;73.70
64876;BME280;51369;49.862;9.908;2023-02-16T15:23:24;99235.94;;;7.84;73.65